createdAt,value
2019-01-19T00:04:01.625Z,11.57
2019-01-19T00:07:08.765Z,10.85
2019-01-19T00:10:07.900Z,14.38
2019-01-19T00:12:59.757Z,10.43
2019-01-19T00:15:55.152Z,10.53
2019-01-19T00:19:02.289Z,20.05
2019-01-19T00:21:57.155Z,9.05
2019-01-19T00:24:49.201Z,12.00
2019-01-19T00:27:56.292Z,12.30
2019-01-19T00:31:03.399Z,10.58
2019-01-19T00:33:56.156Z,11.53
2019-01-19T00:37:03.270Z,11.40
2019-01-19T00:40:10.448Z,9.10
2019-01-19T00:43:01.014Z,8.48
2019-01-19T00:46:08.113Z,13.95
2019-01-19T00:49:15.246Z,11.68
2019-01-19T00:52:09.332Z,9.63
2019-01-19T00:54:59.834Z,12.00
2019-01-19T00:57:54.259Z,9.00
2019-01-19T01:00:46.415Z,10.53
2019-01-19T01:03:53.586Z,8.48
2019-01-19T01:07:00.727Z,10.98
2019-01-19T01:10:07.839Z,9.15
2019-01-19T01:13:14.999Z,14.68
2019-01-19T01:16:22.184Z,8.63
2019-01-19T01:18:57.420Z,7.03
2019-01-19T01:22:04.522Z,9.68
2019-01-19T01:25:11.638Z,11.15
2019-01-19T01:28:18.736Z,8.25
2019-01-19T01:31:18.195Z,10.00
2019-01-19T01:34:05.457Z,6.67
2019-01-19T01:37:12.567Z,8.78
2019-01-19T01:40:04.520Z,6.00
2019-01-19T01:43:02.637Z,7.53
2019-01-19T01:46:09.752Z,9.03
2019-01-19T01:49:01.205Z,7.35
2019-01-19T01:51:36.244Z,7.33
2019-01-19T01:54:43.345Z,9.05
2019-01-19T01:57:26.472Z,7.25
2019-01-19T02:00:33.594Z,10.85
2019-01-19T02:03:40.706Z,7.03
2019-01-19T02:06:47.828Z,8.68
2019-01-19T02:09:54.933Z,10.82
2019-01-19T02:13:02.037Z,7.97
2019-01-19T02:16:09.141Z,8.48
2019-01-19T02:19:16.289Z,7.85
2019-01-19T02:22:23.399Z,8.63
2019-01-19T02:25:30.495Z,10.60
2019-01-19T02:28:37.700Z,7.78
2019-01-19T02:31:33.437Z,9.25
2019-01-19T02:34:26.047Z,9.38
2019-01-19T02:37:20.258Z,8.25
2019-01-19T02:40:27.357Z,8.70
2019-01-19T02:43:34.533Z,8.98
2019-01-19T02:46:41.669Z,9.00
2019-01-19T02:49:38.236Z,8.70
2019-01-19T02:52:45.378Z,10.65
2019-01-19T02:55:52.750Z,7.90
2019-01-19T02:59:00.136Z,7.50
2019-01-19T03:01:53.626Z,9.48
2019-01-19T03:05:00.778Z,8.08
2019-01-19T03:08:07.892Z,9.80
2019-01-19T03:11:15.001Z,8.18
2019-01-19T03:14:22.148Z,10.30
2019-01-19T03:17:29.475Z,9.60
2019-01-19T03:20:36.614Z,8.43
2019-01-19T03:23:43.729Z,11.68
2019-01-19T03:26:50.836Z,8.18
2019-01-19T03:29:45.010Z,8.90
2019-01-19T03:32:52.153Z,10.20
2019-01-19T03:36:04.299Z,8.23
2019-01-19T03:38:37.786Z,8.25
2019-01-19T03:45:12.834Z,6.47
2019-01-19T03:48:19.948Z,9.15
2019-01-19T03:51:27.073Z,7.22
2019-01-19T03:54:34.242Z,6.12
2019-01-19T03:57:41.317Z,6.62
2019-01-19T04:00:48.450Z,7.53
2019-01-19T04:03:42.301Z,7.40
2019-01-19T04:06:49.400Z,8.08
2019-01-19T04:09:41.926Z,7.60
2019-01-19T04:12:49.040Z,8.80
2019-01-19T04:15:56.221Z,7.97
2019-01-19T04:18:47.092Z,8.70
2019-01-19T04:21:39.305Z,5.83
2019-01-19T04:24:46.404Z,6.30
2019-01-19T04:27:15.134Z,8.13
2019-01-19T04:29:43.784Z,6.62
2019-01-19T04:32:27.470Z,8.23
2019-01-19T04:34:42.891Z,7.62
2019-01-19T04:37:11.559Z,7.53
2019-01-19T04:39:40.215Z,10.03
2019-01-19T04:44:58.265Z,5.95
2019-01-19T04:47:26.912Z,9.73
2019-01-19T04:49:55.557Z,7.03
2019-01-19T04:52:24.228Z,7.55
2019-01-19T04:54:52.871Z,7.62
2019-01-19T04:57:21.505Z,9.48
2019-01-19T04:59:50.135Z,6.45
2019-01-19T05:02:18.854Z,6.75
2019-01-19T05:04:47.543Z,7.92
2019-01-19T05:07:16.194Z,7.60
2019-01-19T05:09:44.899Z,6.65
2019-01-19T05:12:13.545Z,7.50
2019-01-19T05:14:42.179Z,9.65
2019-01-19T05:17:10.890Z,7.53
2019-01-19T05:19:39.551Z,11.15
2019-01-19T05:22:08.187Z,12.55
2019-01-19T05:24:36.896Z,7.92
2019-01-19T05:27:05.608Z,7.00
2019-01-19T05:29:34.216Z,8.18
2019-01-19T05:32:02.901Z,8.10
2019-01-19T05:34:31.526Z,9.78
2019-01-19T05:37:00.218Z,8.30
2019-01-19T05:39:28.890Z,7.67
2019-01-19T05:41:57.502Z,10.78
2019-01-19T05:44:26.185Z,6.08
2019-01-19T05:46:54.819Z,7.03
2019-01-19T05:49:23.467Z,5.78
2019-01-19T05:51:52.088Z,8.65
2019-01-19T05:54:20.709Z,5.60
2019-01-19T05:56:49.364Z,6.42
2019-01-19T05:59:17.975Z,7.62
2019-01-19T06:01:46.670Z,7.83
2019-01-19T06:04:15.306Z,10.10
2019-01-19T06:06:46.762Z,9.70
2019-01-19T06:09:14.298Z,7.20
2019-01-19T06:11:42.934Z,7.95
2019-01-19T06:14:11.535Z,6.05
2019-01-19T06:16:40.143Z,7.00
2019-01-19T06:22:03.262Z,7.83
2019-01-19T06:24:31.915Z,7.10
2019-01-19T06:27:00.661Z,8.43
2019-01-19T06:29:29.291Z,7.10
2019-01-19T06:31:57.897Z,9.25
2019-01-19T06:34:26.554Z,9.60
2019-01-19T06:36:55.424Z,9.83
2019-01-19T06:39:24.069Z,8.65
2019-01-19T06:41:52.778Z,9.68
2019-01-19T06:44:21.475Z,7.40
2019-01-19T06:46:50.140Z,10.23
2019-01-19T06:49:18.792Z,5.97
2019-01-19T07:03:55.741Z,9.08
2019-01-19T07:06:24.469Z,7.92
2019-01-19T07:08:53.110Z,9.45
2019-01-19T07:11:21.801Z,6.08
2019-01-19T07:13:50.562Z,6.28
2019-01-19T07:16:19.190Z,8.40
2019-01-19T07:18:47.942Z,7.33
2019-01-19T07:21:16.585Z,9.05
2019-01-19T07:23:45.258Z,7.05
2019-01-19T07:26:13.883Z,5.60
2019-01-19T07:28:42.524Z,7.37
2019-01-19T07:31:11.189Z,8.60
2019-01-19T07:33:40.065Z,5.00
2019-01-19T07:36:08.771Z,8.25
2019-01-19T07:38:37.407Z,6.15
2019-01-19T07:41:06.081Z,7.67
2019-01-19T07:43:34.817Z,8.08
2019-01-19T07:48:52.932Z,11.55
2019-01-19T07:51:21.656Z,8.38
2019-01-19T07:53:50.293Z,6.58
2019-01-19T07:56:19.081Z,7.05
2019-01-19T07:58:47.902Z,8.60
2019-01-19T08:01:16.609Z,7.78
2019-01-19T08:03:45.250Z,7.42
2019-01-19T08:06:13.857Z,7.67
2019-01-19T08:08:42.486Z,7.58
2019-01-19T08:11:11.449Z,8.85
2019-01-19T08:13:40.040Z,7.62
2019-01-19T08:16:08.781Z,10.60
2019-01-19T08:18:37.417Z,6.78
2019-01-19T08:21:06.239Z,6.08
2019-01-19T08:23:34.947Z,8.53
2019-01-19T08:26:06.036Z,7.15
2019-01-19T08:28:34.654Z,9.15
2019-01-19T08:31:03.515Z,7.87
2019-01-19T08:33:32.431Z,6.67
2019-01-19T08:36:01.259Z,9.00
2019-01-19T08:38:29.944Z,8.58
2019-01-19T08:40:58.605Z,5.53
2019-01-19T08:43:46.220Z,6.50
2019-01-19T08:46:14.947Z,7.65
2019-01-19T08:48:43.581Z,7.08
2019-01-19T08:51:14.259Z,6.50
2019-01-19T08:53:43.413Z,6.35
2019-01-19T08:56:12.137Z,7.33
2019-01-19T08:58:41.226Z,14.40
2019-01-19T09:01:09.935Z,8.60
2019-01-19T09:03:38.545Z,9.10
2019-01-19T09:06:07.532Z,6.42
2019-01-19T09:08:36.211Z,5.92
2019-01-19T09:11:04.966Z,6.35
2019-01-19T09:13:33.638Z,7.58
2019-01-19T09:16:24.286Z,10.80
2019-01-19T09:18:52.904Z,7.80
2019-01-19T09:21:21.566Z,8.70
2019-01-19T09:24:09.164Z,7.45
2019-01-19T09:26:37.828Z,9.73
2019-01-19T09:29:06.526Z,8.95
2019-01-19T09:31:35.175Z,12.88
2019-01-19T09:34:04.069Z,12.88
2019-01-19T09:36:32.788Z,9.38
2019-01-19T09:39:01.424Z,13.65
2019-01-19T09:41:30.097Z,8.23
2019-01-19T09:43:58.746Z,9.75
2019-01-19T09:46:27.600Z,10.43
2019-01-19T09:48:56.331Z,7.00
2019-01-19T09:51:25.100Z,5.97
2019-01-19T09:53:53.776Z,7.85
2019-01-19T09:56:41.724Z,13.43
2019-01-19T09:59:10.338Z,6.55
2019-01-19T10:01:38.995Z,8.50
2019-01-19T10:04:07.757Z,6.42
2019-01-19T10:06:36.636Z,7.67
2019-01-19T10:09:47.202Z,7.08
2019-01-19T10:12:16.132Z,6.42
2019-01-19T10:18:01.263Z,9.70
2019-01-19T10:20:31.981Z,5.22
2019-01-19T10:23:00.924Z,8.15
2019-01-19T10:25:29.767Z,7.12
2019-01-19T10:27:58.725Z,8.28
2019-01-19T10:30:27.410Z,6.67
2019-01-19T10:32:56.164Z,7.85
2019-01-19T10:35:24.921Z,6.62
2019-01-19T10:37:56.521Z,9.08
2019-01-19T10:40:24.001Z,7.25
2019-01-19T10:42:52.693Z,8.13
2019-01-19T10:45:41.994Z,6.97
2019-01-19T10:48:10.763Z,8.38
2019-01-19T10:50:39.466Z,8.15
2019-01-19T10:53:08.156Z,7.28
2019-01-19T10:55:36.840Z,7.50
2019-01-19T10:58:05.539Z,9.40
2019-01-19T11:00:34.229Z,11.03
2019-01-19T11:03:03.212Z,7.72
2019-01-19T11:08:20.150Z,5.75
2019-01-19T11:10:48.959Z,6.72
2019-01-19T11:13:17.759Z,10.15
2019-01-19T11:15:46.396Z,8.60
2019-01-19T11:21:09.952Z,7.37
2019-01-19T11:23:39.880Z,6.85
2019-01-19T11:29:10.360Z,8.18
2019-01-19T11:31:39.065Z,7.62
2019-01-19T11:34:07.679Z,7.58
2019-01-19T11:36:36.332Z,7.05
2019-01-19T11:39:07.935Z,9.03
2019-01-19T11:41:36.617Z,8.43
2019-01-19T11:44:05.359Z,9.98
2019-01-19T11:46:34.046Z,8.63
2019-01-19T11:49:02.669Z,8.28
2019-01-19T11:51:31.284Z,6.03
2019-01-19T11:53:59.948Z,8.10
2019-01-19T11:56:28.592Z,9.35
2019-01-19T11:58:59.288Z,7.53
2019-01-19T12:01:27.909Z,8.18
2019-01-19T12:03:56.593Z,8.70
2019-01-19T12:06:25.349Z,7.65
2019-01-19T12:08:55.266Z,10.18
2019-01-19T12:11:24.298Z,6.85
2019-01-19T12:13:52.959Z,6.22
2019-01-19T12:16:21.573Z,6.28
2019-01-19T12:18:50.232Z,7.62
2019-01-19T12:21:18.933Z,7.80
2019-01-19T12:23:47.558Z,8.38
2019-01-19T12:26:16.162Z,6.45
2019-01-19T12:28:44.771Z,6.90
2019-01-19T12:31:13.391Z,6.28
2019-01-19T12:33:42.043Z,10.70
2019-01-19T12:36:10.737Z,7.92
2019-01-19T12:38:39.394Z,8.40
2019-01-19T12:41:08.006Z,6.75
2019-01-19T12:43:36.739Z,5.60
2019-01-19T12:46:08.047Z,7.25
2019-01-19T12:48:43.968Z,6.80
2019-01-19T12:51:13.795Z,9.88
2019-01-19T12:53:42.492Z,7.22
2019-01-19T12:56:11.134Z,7.97
2019-01-19T12:58:39.746Z,6.83
2019-01-19T13:01:08.450Z,7.28
2019-01-19T13:03:37.157Z,6.55
2019-01-19T13:06:44.227Z,5.65
2019-01-19T13:09:19.608Z,5.53
2019-01-19T13:12:26.705Z,6.90
2019-01-19T13:15:33.816Z,5.83
2019-01-19T13:18:34.579Z,8.70
2019-01-19T13:21:41.770Z,6.05
2019-01-19T13:24:48.995Z,10.65
2019-01-19T13:27:56.090Z,6.97
2019-01-19T13:31:03.177Z,8.70
2019-01-19T13:34:10.338Z,6.05
2019-01-19T13:37:15.870Z,8.15
2019-01-19T13:40:08.173Z,6.15
2019-01-19T13:43:15.604Z,11.12
2019-01-19T13:46:22.753Z,6.62
2019-01-19T13:49:29.848Z,5.62
2019-01-19T13:52:36.970Z,5.08
2019-01-19T13:55:44.040Z,15.63
2019-01-19T13:58:18.718Z,15.28
2019-01-19T14:01:25.837Z,8.18
2019-01-19T14:04:05.336Z,6.00
2019-01-19T14:07:12.563Z,6.50
2019-01-19T14:10:07.748Z,7.95
2019-01-19T14:13:14.838Z,10.48
2019-01-19T14:16:21.988Z,7.78
2019-01-19T14:19:15.802Z,8.20
2019-01-19T14:22:23.174Z,5.53
2019-01-19T14:25:31.733Z,7.30
2019-01-19T14:28:38.860Z,6.00
2019-01-19T14:31:36.024Z,5.90
2019-01-19T14:34:28.128Z,6.17
2019-01-19T14:37:23.443Z,6.20
2019-01-19T14:40:18.870Z,7.33
2019-01-19T14:43:26.047Z,7.10
2019-01-19T14:46:17.058Z,4.92
2019-01-19T14:49:24.169Z,4.20
2019-01-19T14:52:31.298Z,4.62
2019-01-19T14:55:38.442Z,7.00
2019-01-19T14:58:31.079Z,5.30
2019-01-19T15:01:38.665Z,6.78
2019-01-19T15:04:45.807Z,5.35
2019-01-19T15:07:37.624Z,5.25
2019-01-19T15:10:44.746Z,7.10
2019-01-19T15:13:51.882Z,6.80
2019-01-19T15:16:59.113Z,6.60
2019-01-19T15:20:06.384Z,4.22
2019-01-19T15:23:07.050Z,5.83
2019-01-19T15:26:14.313Z,20.95
2019-01-19T15:29:07.472Z,9.28
2019-01-19T15:32:14.629Z,12.73
2019-01-19T15:35:21.769Z,11.88
2019-01-19T15:38:28.915Z,7.92
2019-01-19T15:41:21.128Z,5.75
2019-01-19T15:44:28.280Z,4.65
2019-01-19T15:47:35.441Z,7.37
2019-01-19T15:50:42.533Z,5.08
2019-01-19T15:53:33.887Z,6.25
2019-01-19T15:56:41.157Z,5.97
2019-01-19T15:59:32.965Z,11.28
2019-01-19T16:02:42.535Z,7.90
2019-01-19T16:05:43.675Z,6.22
2019-01-19T16:18:12.213Z,9.03
2019-01-19T16:24:16.697Z,13.13
2019-01-19T16:27:24.323Z,13.20
2019-01-19T16:30:31.570Z,11.90
2019-01-19T16:33:38.997Z,7.28
2019-01-19T16:36:47.024Z,9.05
2019-01-19T16:39:31.092Z,8.60
2019-01-19T16:42:39.127Z,6.55
2019-01-19T16:45:48.311Z,5.80
2019-01-19T16:52:16.998Z,7.25
2019-01-19T17:01:32.988Z,5.62
2019-01-19T17:04:40.627Z,6.87
2019-01-19T17:10:47.650Z,4.53
2019-01-19T17:14:01.413Z,6.42
2019-01-19T17:20:23.892Z,6.25
2019-01-19T17:26:14.744Z,5.72
2019-01-19T17:29:22.057Z,6.83
2019-01-19T17:32:29.234Z,4.72
2019-01-19T17:35:38.591Z,5.62
2019-01-19T17:38:30.327Z,6.53
2019-01-19T17:41:37.767Z,6.35
2019-01-19T17:44:44.944Z,8.65
2019-01-19T17:48:01.537Z,7.67
2019-01-19T17:50:49.487Z,6.97
2019-01-19T17:57:02.117Z,6.05
2019-01-19T18:06:20.591Z,9.00
2019-01-19T18:18:24.544Z,12.58
2019-01-19T18:21:48.655Z,12.30
2019-01-19T18:24:43.624Z,8.43
2019-01-19T18:27:31.046Z,13.62
2019-01-19T18:33:57.498Z,18.80
2019-01-19T18:36:58.186Z,11.50
2019-01-19T18:40:05.955Z,11.00
2019-01-19T18:43:13.221Z,12.25
2019-01-19T18:49:09.937Z,8.80
2019-01-19T18:52:01.062Z,8.10
2019-01-19T18:55:08.236Z,8.05
2019-01-19T18:58:15.421Z,7.70
2019-01-19T19:01:14.517Z,10.25
2019-01-19T19:04:22.452Z,9.18
2019-01-19T19:07:29.766Z,10.03
2019-01-19T19:10:24.499Z,9.25
2019-01-19T19:13:34.482Z,8.28
2019-01-19T19:18:01.665Z,10.65
2019-01-19T19:21:08.871Z,8.30
2019-01-19T19:23:56.650Z,9.55
2019-01-19T19:27:03.843Z,7.42
2019-01-19T19:30:06.263Z,8.85
2019-01-19T19:33:13.448Z,9.23
2019-01-19T19:36:15.874Z,9.55
2019-01-19T19:39:29.583Z,11.22
2019-01-19T19:42:36.583Z,8.78
2019-01-19T19:45:46.404Z,11.53
2019-01-19T19:48:44.838Z,8.65
2019-01-19T19:51:55.898Z,12.30
2019-01-19T20:00:27.496Z,7.62
2019-01-19T20:02:56.375Z,11.10
2019-01-19T20:05:25.729Z,9.25
2019-01-19T20:07:55.472Z,13.30
2019-01-19T20:10:27.152Z,8.98
2019-01-19T20:12:56.631Z,11.38
2019-01-19T20:18:22.961Z,9.48
2019-01-19T20:20:55.473Z,8.48
2019-01-19T20:24:04.416Z,9.10
2019-01-19T20:26:35.722Z,8.93
2019-01-19T20:29:25.238Z,9.90
2019-01-19T20:31:54.092Z,11.60
2019-01-19T20:34:23.080Z,13.62
2019-01-19T20:36:59.629Z,22.45
2019-01-19T20:40:08.169Z,25.48
2019-01-19T20:42:39.812Z,24.02
2019-01-19T20:45:10.341Z,14.35
2019-01-19T20:47:39.245Z,22.37
2019-01-19T20:50:08.885Z,18.48
2019-01-19T20:52:38.015Z,18.17
2019-01-19T20:55:07.227Z,15.83
2019-01-19T20:57:36.220Z,13.90
2019-01-19T21:00:11.023Z,17.77
2019-01-19T21:02:39.875Z,12.60
2019-01-19T21:05:09.342Z,14.07
2019-01-19T21:07:38.686Z,12.53
2019-01-19T21:10:07.950Z,14.18
2019-01-19T21:12:36.778Z,12.60
2019-01-19T21:15:45.898Z,11.50
2019-01-19T21:18:14.900Z,13.43
2019-01-19T21:20:43.904Z,14.07
2019-01-19T21:23:13.160Z,14.85
2019-01-19T21:25:42.127Z,13.35
2019-01-19T21:28:11.240Z,14.18
2019-01-19T21:30:43.324Z,10.95
2019-01-19T21:33:12.308Z,13.80
2019-01-19T21:36:00.619Z,16.82
2019-01-19T21:38:29.450Z,10.10
2019-01-19T21:40:58.330Z,12.03
2019-01-19T21:43:27.115Z,13.10
2019-01-19T21:45:56.091Z,11.18
2019-01-19T21:48:25.005Z,9.63
2019-01-19T21:50:53.948Z,14.28
2019-01-19T21:53:22.848Z,10.10
2019-01-19T21:56:11.608Z,11.33
2019-01-19T22:01:35.041Z,8.33
2019-01-19T22:04:04.115Z,9.23
2019-01-19T22:06:32.853Z,8.98
2019-01-19T22:09:21.353Z,9.90
2019-01-19T22:11:50.294Z,12.65
2019-01-19T22:14:19.108Z,11.10
2019-01-19T22:16:47.924Z,11.35
2019-01-19T22:19:16.713Z,10.32
2019-01-19T22:21:45.679Z,9.33
2019-01-19T22:24:41.460Z,10.58
2019-01-19T22:29:59.992Z,11.55
2019-01-19T22:32:28.889Z,9.40
2019-01-19T22:38:11.992Z,12.03
2019-01-19T22:43:52.201Z,10.03
2019-01-19T22:46:21.236Z,11.03
2019-01-19T22:48:50.049Z,13.53
2019-01-19T22:56:56.876Z,10.53
2019-01-19T22:59:26.392Z,14.13
2019-01-19T23:02:08.013Z,14.28
2019-01-19T23:04:54.204Z,14.45
2019-01-19T23:20:25.036Z,13.68
2019-01-19T23:22:54.018Z,12.30
2019-01-19T23:25:22.973Z,13.50
2019-01-19T23:27:51.768Z,11.43
2019-01-19T23:30:20.758Z,12.45
2019-01-19T23:32:49.926Z,10.40
2019-01-19T23:35:19.059Z,14.53
2019-01-19T23:37:47.981Z,12.85
2019-01-19T23:40:17.884Z,10.90
2019-01-19T23:42:47.810Z,16.52
2019-01-19T23:45:16.795Z,13.65
2019-01-19T23:47:45.543Z,15.03
2019-01-19T23:50:14.415Z,13.70
2019-01-19T23:52:43.362Z,13.85
2019-01-19T23:57:47.789Z,12.50
